createdAt,value
2022-11-09T00:01:03.199Z,74.82
2022-11-09T00:03:30.866Z,75.28
2022-11-09T00:05:59.980Z,63.90
2022-11-09T00:08:28.171Z,67.03
2022-11-09T00:11:02.430Z,76.07
2022-11-09T00:13:30.113Z,77.63
2022-11-09T00:16:02.233Z,65.78
2022-11-09T00:18:29.946Z,70.25
2022-11-09T00:20:57.833Z,63.80
2022-11-09T00:23:25.495Z,68.12
2022-11-09T00:25:52.854Z,69.43
2022-11-09T00:28:20.599Z,73.90
2022-11-09T00:30:47.963Z,66.85
2022-11-09T00:33:16.683Z,66.28
2022-11-09T00:35:44.524Z,68.85
2022-11-09T00:38:13.188Z,68.30
2022-11-09T00:40:40.895Z,67.32
2022-11-09T00:43:08.683Z,68.97
2022-11-09T00:45:36.063Z,75.32
2022-11-09T00:48:04.331Z,64.85
2022-11-09T00:50:32.067Z,71.25
2022-11-09T00:52:59.874Z,79.68
2022-11-09T00:55:27.861Z,62.72
2022-11-09T00:57:55.660Z,71.00
2022-11-09T01:00:24.348Z,62.35
2022-11-09T01:02:53.215Z,78.47
2022-11-09T01:05:21.071Z,65.57
2022-11-09T01:07:50.046Z,68.10
2022-11-09T01:10:17.408Z,73.78
2022-11-09T01:12:46.964Z,70.87
2022-11-09T01:15:15.503Z,72.90
2022-11-09T01:17:43.020Z,67.30
2022-11-09T01:20:11.441Z,64.97
2022-11-09T01:22:38.943Z,83.05
2022-11-09T01:25:06.677Z,74.75
2022-11-09T01:27:34.677Z,64.65
2022-11-09T01:30:02.192Z,82.07
2022-11-09T01:32:32.459Z,62.45
2022-11-09T01:35:00.143Z,64.78
2022-11-09T01:37:30.222Z,69.95
2022-11-09T01:39:57.812Z,78.72
2022-11-09T01:42:26.145Z,58.45
2022-11-09T01:45:18.591Z,58.83
2022-11-09T01:47:48.891Z,66.47
2022-11-09T01:50:19.594Z,85.05
2022-11-09T01:52:48.634Z,74.07
2022-11-09T01:55:19.946Z,71.82
2022-11-09T01:58:00.997Z,62.10
2022-11-09T02:00:29.050Z,68.15
2022-11-09T02:03:00.026Z,58.87
2022-11-09T02:05:30.294Z,57.95
2022-11-09T02:07:58.585Z,65.82
2022-11-09T02:10:34.150Z,54.50
2022-11-09T02:13:02.452Z,65.95
2022-11-09T02:15:40.164Z,56.83
2022-11-09T02:18:11.264Z,66.90
2022-11-09T02:20:52.798Z,64.10
2022-11-09T02:23:24.568Z,52.72
2022-11-09T02:26:01.725Z,54.50
2022-11-09T02:28:30.526Z,60.70
2022-11-09T02:30:59.720Z,69.97
2022-11-09T02:33:27.388Z,62.33
2022-11-09T02:35:55.242Z,55.35
2022-11-09T02:38:23.121Z,64.45
2022-11-09T02:40:51.554Z,59.55
2022-11-09T02:43:19.925Z,48.47
2022-11-09T02:45:48.319Z,49.63
2022-11-09T02:48:15.816Z,61.00
2022-11-09T02:50:43.182Z,59.95
2022-11-09T02:53:10.952Z,46.15
2022-11-09T02:55:38.955Z,54.35
2022-11-09T02:58:06.858Z,49.00
2022-11-09T03:00:35.404Z,55.75
2022-11-09T03:03:03.696Z,49.55
2022-11-09T03:05:31.115Z,51.97
2022-11-09T03:08:02.410Z,51.22
2022-11-09T03:10:30.326Z,54.58
2022-11-09T03:12:58.046Z,43.05
2022-11-09T03:15:25.924Z,46.05
2022-11-09T03:17:53.280Z,57.10
2022-11-09T03:20:21.239Z,53.13
2022-11-09T03:22:49.365Z,54.63
2022-11-09T03:25:17.863Z,75.62
2022-11-09T03:27:45.685Z,49.72
2022-11-09T03:30:13.588Z,61.37
2022-11-09T03:32:41.590Z,56.00
2022-11-09T03:35:09.379Z,55.03
2022-11-09T03:37:37.485Z,46.17
2022-11-09T03:40:05.536Z,52.17
2022-11-09T03:42:32.866Z,48.45
2022-11-09T03:45:00.423Z,59.00
2022-11-09T03:47:27.778Z,49.58
2022-11-09T03:49:55.548Z,43.13
2022-11-09T03:52:23.278Z,52.17
2022-11-09T03:54:50.604Z,53.67
2022-11-09T03:57:18.215Z,48.58
2022-11-09T03:59:46.262Z,48.85
2022-11-09T04:02:13.621Z,60.12
2022-11-09T04:04:41.295Z,46.67
2022-11-09T04:07:10.749Z,48.70
2022-11-09T04:09:38.390Z,54.22
2022-11-09T04:12:06.185Z,61.00
2022-11-09T04:14:33.743Z,67.95
2022-11-09T04:17:01.060Z,51.15
2022-11-09T04:19:28.904Z,60.30
2022-11-09T04:21:56.320Z,51.22
2022-11-09T04:24:23.823Z,53.20
2022-11-09T04:26:51.422Z,46.55
2022-11-09T04:29:18.806Z,53.58
2022-11-09T04:31:48.991Z,52.85
2022-11-09T04:34:17.325Z,50.45
2022-11-09T04:36:45.038Z,51.47
2022-11-09T04:39:12.815Z,54.78
2022-11-09T04:41:40.644Z,50.50
2022-11-09T04:44:08.251Z,53.97
2022-11-09T04:46:35.618Z,47.83
2022-11-09T04:49:03.424Z,46.10
2022-11-09T04:51:30.759Z,53.87
2022-11-09T04:53:58.338Z,50.58
2022-11-09T04:56:25.970Z,49.88
2022-11-09T04:58:53.323Z,49.35
2022-11-09T05:01:20.875Z,65.22
2022-11-09T05:03:48.790Z,53.70
2022-11-09T05:06:31.996Z,50.05
2022-11-09T05:09:07.598Z,49.70
2022-11-09T05:11:36.013Z,65.50
2022-11-09T05:14:04.188Z,49.35
2022-11-09T05:16:32.081Z,59.28
2022-11-09T05:18:59.587Z,48.75
2022-11-09T05:21:27.644Z,50.25
2022-11-09T05:24:00.968Z,55.65
2022-11-09T05:26:33.852Z,57.23
2022-11-09T05:29:03.981Z,76.15
2022-11-09T05:31:32.032Z,60.03
2022-11-09T05:34:00.101Z,61.95
2022-11-09T05:36:28.543Z,54.60
2022-11-09T05:38:56.991Z,54.58
2022-11-09T05:41:24.332Z,51.85
2022-11-09T05:43:52.345Z,51.65
2022-11-09T05:46:20.122Z,44.33
2022-11-09T05:48:47.613Z,55.08
2022-11-09T05:51:15.460Z,68.72
2022-11-09T05:53:46.436Z,59.50
2022-11-09T05:56:15.009Z,76.40
2022-11-09T05:58:43.168Z,44.28
2022-11-09T06:01:15.965Z,42.03
2022-11-09T06:03:44.715Z,52.00
2022-11-09T06:06:14.343Z,52.67
2022-11-09T06:08:42.311Z,48.42
2022-11-09T06:11:12.601Z,58.92
2022-11-09T06:13:41.662Z,51.35
2022-11-09T06:16:10.164Z,49.30
2022-11-09T06:18:38.146Z,53.40
2022-11-09T06:21:06.313Z,54.75
2022-11-09T06:23:34.430Z,47.65
2022-11-09T06:26:09.193Z,58.10
2022-11-09T06:28:38.144Z,53.95
2022-11-09T06:31:07.585Z,43.10
2022-11-09T06:33:36.159Z,48.92
2022-11-09T06:36:03.994Z,47.88
2022-11-09T06:38:32.385Z,54.10
2022-11-09T06:41:00.360Z,48.70
2022-11-09T06:43:28.574Z,49.83
2022-11-09T06:45:56.857Z,52.33
2022-11-09T06:48:24.872Z,55.67
2022-11-09T06:50:52.556Z,49.22
2022-11-09T06:53:20.682Z,47.47
2022-11-09T06:55:50.892Z,42.60
2022-11-09T06:58:19.895Z,49.85
2022-11-09T07:00:47.640Z,47.90
2022-11-09T07:03:16.760Z,45.80
2022-11-09T07:05:45.086Z,54.90
2022-11-09T07:08:13.949Z,50.53
2022-11-09T07:10:41.743Z,50.45
2022-11-09T07:13:09.765Z,52.90
2022-11-09T07:15:38.341Z,42.70
2022-11-09T07:18:07.971Z,45.53
2022-11-09T07:20:35.534Z,54.05
2022-11-09T07:23:03.481Z,48.83
2022-11-09T07:25:32.429Z,41.88
2022-11-09T07:28:08.471Z,41.70
2022-11-09T07:30:39.517Z,52.05
2022-11-09T07:33:15.283Z,42.13
2022-11-09T07:35:43.054Z,48.20
2022-11-09T07:38:11.128Z,60.10
2022-11-09T07:40:38.800Z,42.70
2022-11-09T07:43:07.508Z,44.55
2022-11-09T07:45:36.345Z,39.03
2022-11-09T07:48:06.918Z,44.33
2022-11-09T07:50:36.133Z,45.25
2022-11-09T07:53:03.714Z,45.38
2022-11-09T07:55:31.442Z,50.12
2022-11-09T07:58:00.723Z,46.22
2022-11-09T08:00:30.191Z,41.37
2022-11-09T08:02:58.107Z,43.60
2022-11-09T08:05:26.032Z,46.92
2022-11-09T08:07:57.691Z,46.70
2022-11-09T08:10:26.564Z,44.67
2022-11-09T08:12:58.975Z,44.78
2022-11-09T08:15:27.667Z,45.03
2022-11-09T08:17:59.198Z,48.97
2022-11-09T08:20:26.852Z,46.55
2022-11-09T08:22:58.330Z,42.58
2022-11-09T08:25:29.038Z,42.00
2022-11-09T08:27:57.409Z,50.20
2022-11-09T08:30:25.309Z,44.05
2022-11-09T08:32:53.272Z,52.70
2022-11-09T08:35:22.518Z,45.12
2022-11-09T08:37:50.844Z,60.00
2022-11-09T08:40:27.585Z,49.95
2022-11-09T08:42:55.389Z,46.88
2022-11-09T08:45:23.228Z,50.28
2022-11-09T08:50:58.974Z,55.05
2022-11-09T08:53:27.937Z,51.88
2022-11-09T08:55:55.644Z,48.72
2022-11-09T08:58:23.777Z,55.38
2022-11-09T09:00:51.823Z,57.50
2022-11-09T09:03:19.150Z,55.20
2022-11-09T09:05:46.500Z,54.10
2022-11-09T09:08:15.708Z,52.28
2022-11-09T09:10:43.264Z,50.33
2022-11-09T09:13:10.697Z,51.35
2022-11-09T09:15:38.361Z,45.80
2022-11-09T09:18:05.957Z,52.22
2022-11-09T09:20:33.386Z,58.40
2022-11-09T09:23:01.561Z,62.65
2022-11-09T09:25:28.928Z,49.80
2022-11-09T09:27:56.693Z,49.22
2022-11-09T09:30:24.510Z,61.60
2022-11-09T09:32:52.260Z,53.30
2022-11-09T09:35:19.737Z,55.47
2022-11-09T09:37:47.471Z,54.25
2022-11-09T09:40:42.714Z,55.65
2022-11-09T09:45:51.668Z,51.97
2022-11-09T09:48:26.778Z,55.10
2022-11-09T09:50:59.700Z,55.10
2022-11-09T09:53:32.691Z,61.15
2022-11-09T09:56:04.936Z,58.92
2022-11-09T09:58:34.471Z,62.38
2022-11-09T10:01:12.426Z,59.00
2022-11-09T10:03:40.457Z,55.75
2022-11-09T10:06:37.838Z,55.75
2022-11-09T10:09:08.423Z,66.35
2022-11-09T10:11:51.739Z,66.53
2022-11-09T10:14:28.407Z,55.92
2022-11-09T10:17:01.360Z,61.67
2022-11-09T10:20:20.040Z,62.25
2022-11-09T10:23:15.533Z,61.03
2022-11-09T10:29:09.091Z,61.37
2022-11-09T10:31:31.410Z,60.90
2022-11-09T10:34:08.238Z,62.28
2022-11-09T10:36:48.267Z,63.42
2022-11-09T10:39:16.212Z,59.05
2022-11-09T10:42:02.131Z,57.85
2022-11-09T10:44:48.016Z,58.87
2022-11-09T10:47:50.526Z,65.20
2022-11-09T10:50:51.911Z,59.75
2022-11-09T10:53:37.620Z,63.10
2022-11-09T10:56:23.529Z,62.45
2022-11-09T10:59:31.041Z,62.75
2022-11-09T11:02:26.245Z,62.95
2022-11-09T11:05:18.241Z,57.95
2022-11-09T11:08:23.610Z,65.30
2022-11-09T11:11:36.328Z,67.80
2022-11-09T11:14:32.684Z,65.40
2022-11-09T11:17:26.734Z,67.97
2022-11-09T11:20:36.529Z,68.40
2022-11-09T11:23:25.667Z,64.50
2022-11-09T11:26:23.379Z,67.12
2022-11-09T11:29:33.512Z,63.80
2022-11-09T11:32:21.244Z,67.30
2022-11-09T11:35:42.037Z,62.78
2022-11-09T11:38:38.651Z,65.47
2022-11-09T11:41:45.791Z,66.70
2022-11-09T11:45:07.122Z,65.53
2022-11-09T11:48:07.485Z,70.60
2022-11-09T11:51:19.085Z,69.78
2022-11-09T11:54:13.686Z,68.30
2022-11-09T11:57:30.863Z,65.80
2022-11-09T12:00:20.246Z,68.40
2022-11-09T12:03:21.389Z,66.80
2022-11-09T12:06:43.992Z,71.43
2022-11-09T12:10:06.255Z,71.15
2022-11-09T12:13:03.261Z,77.35
2022-11-09T12:16:13.020Z,73.60
2022-11-09T12:19:11.416Z,70.70
2022-11-09T12:22:07.251Z,76.55
2022-11-09T12:28:15.907Z,81.72
2022-11-09T12:31:10.895Z,79.28
2022-11-09T12:34:01.525Z,79.95
2022-11-09T12:36:52.890Z,76.47
2022-11-09T12:39:46.797Z,79.50
2022-11-09T12:42:40.988Z,86.97
2022-11-09T12:45:36.048Z,76.43
2022-11-09T12:48:31.029Z,76.97
2022-11-09T12:51:17.350Z,70.32
2022-11-09T12:54:11.204Z,74.47
2022-11-09T12:57:04.889Z,78.12
2022-11-09T12:59:54.509Z,71.00
2022-11-09T13:02:57.568Z,75.07
2022-11-09T13:05:44.936Z,73.35
2022-11-09T13:08:31.408Z,69.45
2022-11-09T13:11:17.410Z,78.12
2022-11-09T13:14:22.101Z,70.82
2022-11-09T13:17:23.657Z,69.87
2022-11-09T13:20:55.951Z,73.10
2022-11-09T13:29:41.855Z,70.78
2022-11-09T13:32:33.702Z,70.32
2022-11-09T13:35:38.504Z,70.70
2022-11-09T13:38:26.593Z,70.12
2022-11-09T13:41:31.990Z,71.00
2022-11-09T13:44:34.187Z,75.30
2022-11-09T13:47:27.857Z,73.07
2022-11-09T13:50:25.063Z,68.90
2022-11-09T13:53:28.539Z,70.93
2022-11-09T13:56:29.254Z,67.97
2022-11-09T13:59:32.576Z,77.03
2022-11-09T14:02:24.832Z,70.43
2022-11-09T14:05:43.725Z,80.47
2022-11-09T14:08:41.149Z,68.75
2022-11-09T14:11:47.566Z,74.45
2022-11-09T14:14:59.278Z,81.65
2022-11-09T14:17:55.914Z,75.78
2022-11-09T14:20:51.204Z,79.57
2022-11-09T14:23:37.386Z,82.65
2022-11-09T14:26:24.966Z,79.55
2022-11-09T14:29:21.982Z,82.85
2022-11-09T14:32:30.616Z,82.25
2022-11-09T14:35:27.697Z,74.20
2022-11-09T14:38:23.482Z,83.78
2022-11-09T14:41:25.602Z,82.55
2022-11-09T14:44:28.316Z,58.17
2022-11-09T14:47:19.958Z,82.72
2022-11-09T14:50:09.398Z,77.45
2022-11-09T14:52:56.097Z,77.82
2022-11-09T14:55:42.550Z,84.07
2022-11-09T14:58:28.766Z,79.45
2022-11-09T15:01:17.585Z,77.93
2022-11-09T15:04:20.104Z,73.85
2022-11-09T15:07:06.536Z,78.55
2022-11-09T15:09:57.695Z,77.85
2022-11-09T15:12:50.290Z,82.07
2022-11-09T15:15:36.560Z,88.03
2022-11-09T15:18:30.424Z,89.05
2022-11-09T15:21:25.154Z,86.10
2022-11-09T15:24:11.041Z,82.93
2022-11-09T15:26:57.960Z,81.93
2022-11-09T15:29:44.572Z,84.20
2022-11-09T15:32:36.873Z,88.40
2022-11-09T15:35:23.352Z,89.68
2022-11-09T15:38:40.960Z,89.18
2022-11-09T15:41:27.332Z,82.72
2022-11-09T15:44:14.607Z,89.72
2022-11-09T15:47:00.686Z,83.37
2022-11-09T15:49:46.840Z,96.32
2022-11-09T15:52:32.881Z,88.72
2022-11-09T15:55:22.060Z,86.03
2022-11-09T15:58:12.608Z,86.63
2022-11-09T16:00:58.754Z,92.90
2022-11-09T16:03:44.717Z,91.07
2022-11-09T16:06:31.317Z,96.72
2022-11-09T16:09:17.703Z,101.35
2022-11-09T16:12:04.240Z,91.18
2022-11-09T16:14:50.767Z,88.20
2022-11-09T16:17:36.623Z,93.70
2022-11-09T16:20:22.974Z,84.50
2022-11-09T16:23:09.258Z,94.05
2022-11-09T16:25:55.079Z,96.37
2022-11-09T16:28:41.678Z,90.97
2022-11-09T16:31:50.170Z,96.30
2022-11-09T16:34:33.759Z,89.65
2022-11-09T16:37:20.848Z,89.35
2022-11-09T16:40:11.235Z,91.75
2022-11-09T16:42:59.376Z,103.32
2022-11-09T16:45:48.303Z,84.57
2022-11-09T16:48:34.503Z,88.20
2022-11-09T16:51:22.017Z,98.03
2022-11-09T16:54:08.095Z,78.40
2022-11-09T16:56:55.177Z,85.03
2022-11-09T16:59:41.490Z,82.12
2022-11-09T17:02:28.450Z,63.40
2022-11-09T17:05:14.645Z,77.90
2022-11-09T17:08:00.403Z,102.05
2022-11-09T17:10:47.445Z,82.88
2022-11-09T17:13:33.671Z,79.68
2022-11-09T17:16:20.478Z,75.07
2022-11-09T17:19:06.708Z,75.75
2022-11-09T17:21:52.684Z,87.88
2022-11-09T17:24:38.967Z,80.87
2022-11-09T17:27:25.115Z,96.80
2022-11-09T17:30:12.220Z,97.70
2022-11-09T17:32:58.986Z,90.97
2022-11-09T17:35:45.867Z,83.50
2022-11-09T17:38:32.384Z,95.03
2022-11-09T17:41:20.158Z,95.70
2022-11-09T17:44:07.385Z,93.47
2022-11-09T17:46:53.742Z,100.15
2022-11-09T17:49:40.799Z,108.97
2022-11-09T17:52:27.645Z,98.28
2022-11-09T17:55:14.797Z,97.25
2022-11-09T17:58:02.853Z,103.95
2022-11-09T18:00:49.540Z,94.40
2022-11-09T18:03:37.213Z,96.18
2022-11-09T18:06:24.494Z,98.90
2022-11-09T18:09:39.526Z,103.47
2022-11-09T18:12:17.812Z,93.57
2022-11-09T18:15:04.783Z,97.90
2022-11-09T18:17:50.958Z,103.30
2022-11-09T18:20:39.284Z,106.85
2022-11-09T18:23:26.360Z,102.07
2022-11-09T18:26:13.512Z,105.37
2022-11-09T18:29:00.934Z,100.78
2022-11-09T18:31:47.716Z,98.93
2022-11-09T18:34:35.174Z,97.55
2022-11-09T18:37:22.882Z,90.20
2022-11-09T18:40:10.953Z,92.32
2022-11-09T18:42:57.604Z,97.72
2022-11-09T18:45:45.340Z,89.68
2022-11-09T18:48:32.214Z,93.25
2022-11-09T18:51:19.054Z,89.07
2022-11-09T18:54:05.409Z,98.10
2022-11-09T18:56:52.025Z,97.25
2022-11-09T18:59:40.958Z,97.00
2022-11-09T19:02:28.511Z,98.75
2022-11-09T19:05:15.455Z,90.43
2022-11-09T19:08:01.634Z,93.93
2022-11-09T19:10:48.700Z,84.72
2022-11-09T19:13:35.201Z,92.75
2022-11-09T19:16:22.372Z,94.13
2022-11-09T19:19:12.856Z,85.50
2022-11-09T19:22:00.073Z,85.10
2022-11-09T19:24:46.686Z,92.53
2022-11-09T19:27:33.203Z,84.47
2022-11-09T19:30:19.934Z,87.80
2022-11-09T19:33:07.145Z,84.72
2022-11-09T19:36:23.325Z,83.80
2022-11-09T19:39:00.018Z,89.03
2022-11-09T19:41:47.143Z,94.20
2022-11-09T19:44:33.468Z,93.05
2022-11-09T19:47:19.791Z,102.50
2022-11-09T19:50:07.047Z,87.50
2022-11-09T19:52:53.459Z,92.88
2022-11-09T19:55:39.397Z,88.12
2022-11-09T19:58:25.268Z,92.75
2022-11-09T20:01:12.311Z,109.50
2022-11-09T20:04:00.750Z,130.12
2022-11-09T20:06:47.811Z,119.90
2022-11-09T20:09:34.803Z,103.93
2022-11-09T20:12:45.302Z,96.43
2022-11-09T20:15:33.131Z,94.75
2022-11-09T20:18:20.783Z,92.00
2022-11-09T20:21:07.039Z,91.43
2022-11-09T20:23:53.876Z,82.80
2022-11-09T20:26:41.266Z,84.47
2022-11-09T20:29:29.316Z,88.68
2022-11-09T20:32:21.365Z,84.07
2022-11-09T20:35:12.963Z,80.45
2022-11-09T20:37:59.727Z,86.47
2022-11-09T20:40:59.935Z,88.10
2022-11-09T20:43:46.791Z,84.43
2022-11-09T20:46:36.480Z,85.20
2022-11-09T20:49:23.399Z,85.85
2022-11-09T20:52:09.615Z,85.28
2022-11-09T20:54:56.810Z,88.78
2022-11-09T20:57:43.463Z,85.65
2022-11-09T21:00:31.392Z,82.68
2022-11-09T21:03:18.646Z,73.78
2022-11-09T21:06:06.376Z,89.55
2022-11-09T21:08:55.104Z,91.20
2022-11-09T21:12:01.358Z,83.78
2022-11-09T21:17:33.300Z,83.47
2022-11-09T21:20:19.221Z,80.12
2022-11-09T21:23:11.540Z,87.32
2022-11-09T21:26:18.590Z,94.25
2022-11-09T21:29:24.300Z,91.40
2022-11-09T21:32:11.593Z,82.10
2022-11-09T21:34:58.014Z,85.68
2022-11-09T21:37:43.974Z,88.60
2022-11-09T21:40:29.924Z,79.53
2022-11-09T21:43:16.394Z,91.85
2022-11-09T21:46:02.444Z,80.35
2022-11-09T21:48:49.106Z,82.68
2022-11-09T21:51:36.382Z,91.20
2022-11-09T21:54:22.675Z,81.55
2022-11-09T21:57:08.384Z,84.05
2022-11-09T21:59:54.557Z,88.65
2022-11-09T22:02:40.328Z,91.15
2022-11-09T22:05:26.780Z,96.63
2022-11-09T22:08:12.776Z,86.80
2022-11-09T22:11:06.680Z,85.22
2022-11-09T22:14:27.721Z,86.25
2022-11-09T22:17:13.306Z,73.80
2022-11-09T22:20:17.919Z,83.45
2022-11-09T22:23:07.956Z,92.82
2022-11-09T22:25:53.801Z,85.38
2022-11-09T22:28:39.735Z,89.30
2022-11-09T22:31:26.138Z,90.70
2022-11-09T22:34:12.011Z,95.70
2022-11-09T22:36:57.728Z,93.68
2022-11-09T22:39:47.253Z,88.55
2022-11-09T22:42:33.832Z,86.72
2022-11-09T22:45:19.580Z,94.18
2022-11-09T22:48:05.525Z,92.35
2022-11-09T22:50:51.201Z,96.20
2022-11-09T22:53:37.690Z,89.43
2022-11-09T22:56:23.337Z,93.45
2022-11-09T22:59:09.080Z,90.53
2022-11-09T23:04:58.855Z,99.90
2022-11-09T23:07:44.666Z,86.57
2022-11-09T23:10:30.933Z,86.50
2022-11-09T23:13:17.115Z,92.18
2022-11-09T23:16:05.872Z,92.62
2022-11-09T23:18:55.098Z,94.68
2022-11-09T23:21:41.724Z,86.90
2022-11-09T23:24:46.379Z,89.40
2022-11-09T23:27:32.094Z,85.60
2022-11-09T23:30:18.572Z,87.85
2022-11-09T23:33:04.631Z,91.50
2022-11-09T23:35:50.544Z,98.50
2022-11-09T23:38:37.994Z,90.10
2022-11-09T23:41:24.386Z,84.85
2022-11-09T23:44:10.436Z,93.32
2022-11-09T23:46:56.178Z,94.75
2022-11-09T23:49:42.612Z,95.30
2022-11-09T23:52:29.164Z,102.57
2022-11-09T23:55:15.252Z,98.15
2022-11-09T23:58:02.396Z,88.47
